sensor_id;sensor_type;location;lat;lon;timestamp;P1;durP1;ratioP1;P2;durP2;ratioP2
27979;SDS011;15315;50.836;4.430;2024-01-10T00:05:21;15.00;;;5.03;;
27979;SDS011;15315;50.836;4.430;2024-01-10T00:15:22;12.95;;;5.20;;
27979;SDS011;15315;50.836;4.430;2024-01-10T00:25:22;17.75;;;5.80;;
27979;SDS011;15315;50.836;4.430;2024-01-10T00:35:23;11.90;;;5.82;;
27979;SDS011;15315;50.836;4.430;2024-01-10T00:45:23;12.63;;;5.35;;
27979;SDS011;15315;50.836;4.430;2024-01-10T00:55:24;15.40;;;5.68;;
27979;SDS011;15315;50.836;4.430;2024-01-10T01:05:24;12.73;;;6.32;;
27979;SDS011;15315;50.836;4.430;2024-01-10T01:15:25;14.63;;;5.70;;
27979;SDS011;15315;50.836;4.430;2024-01-10T01:25:25;14.23;;;6.40;;
27979;SDS011;15315;50.836;4.430;2024-01-10T01:35:25;14.82;;;6.43;;
27979;SDS011;15315;50.836;4.430;2024-01-10T01:45:26;12.40;;;5.78;;
27979;SDS011;15315;50.836;4.430;2024-01-10T01:55:26;15.82;;;6.75;;
27979;SDS011;15315;50.836;4.430;2024-01-10T02:05:27;14.68;;;5.95;;
27979;SDS011;15315;50.836;4.430;2024-01-10T02:15:28;15.60;;;7.05;;
27979;SDS011;15315;50.836;4.430;2024-01-10T02:25:29;21.10;;;6.65;;
27979;SDS011;15315;50.836;4.430;2024-01-10T02:35:29;18.42;;;6.00;;
27979;SDS011;15315;50.836;4.430;2024-01-10T02:45:32;15.73;;;6.70;;
27979;SDS011;15315;50.836;4.430;2024-01-10T02:55:33;17.20;;;6.00;;
27979;SDS011;15315;50.836;4.430;2024-01-10T03:05:34;14.25;;;6.50;;
27979;SDS011;15315;50.836;4.430;2024-01-10T03:15:34;19.75;;;6.78;;
27979;SDS011;15315;50.836;4.430;2024-01-10T03:25:35;28.75;;;6.75;;
27979;SDS011;15315;50.836;4.430;2024-01-10T03:35:35;15.40;;;5.90;;
27979;SDS011;15315;50.836;4.430;2024-01-10T03:45:36;23.33;;;7.00;;
27979;SDS011;15315;50.836;4.430;2024-01-10T03:55:36;16.08;;;6.75;;
27979;SDS011;15315;50.836;4.430;2024-01-10T04:05:36;21.58;;;6.90;;
27979;SDS011;15315;50.836;4.430;2024-01-10T04:15:37;19.20;;;5.90;;
27979;SDS011;15315;50.836;4.430;2024-01-10T04:25:37;18.05;;;5.90;;
27979;SDS011;15315;50.836;4.430;2024-01-10T04:35:37;14.20;;;5.50;;
27979;SDS011;15315;50.836;4.430;2024-01-10T04:45:38;11.88;;;5.57;;
27979;SDS011;15315;50.836;4.430;2024-01-10T04:55:39;20.05;;;7.70;;
27979;SDS011;15315;50.836;4.430;2024-01-10T05:05:39;19.17;;;6.88;;
27979;SDS011;15315;50.836;4.430;2024-01-10T05:15:39;17.55;;;6.75;;
27979;SDS011;15315;50.836;4.430;2024-01-10T05:25:40;14.95;;;5.93;;
27979;SDS011;15315;50.836;4.430;2024-01-10T05:35:40;15.73;;;6.60;;
27979;SDS011;15315;50.836;4.430;2024-01-10T05:45:42;19.52;;;6.40;;
27979;SDS011;15315;50.836;4.430;2024-01-10T05:55:43;14.20;;;6.10;;
27979;SDS011;15315;50.836;4.430;2024-01-10T06:05:44;19.30;;;6.28;;
27979;SDS011;15315;50.836;4.430;2024-01-10T06:15:44;15.30;;;6.45;;
27979;SDS011;15315;50.836;4.430;2024-01-10T06:25:44;12.63;;;5.68;;
27979;SDS011;15315;50.836;4.430;2024-01-10T06:35:45;15.07;;;6.32;;
27979;SDS011;15315;50.836;4.430;2024-01-10T06:45:46;19.60;;;7.67;;
27979;SDS011;15315;50.836;4.430;2024-01-10T06:55:48;15.57;;;6.93;;
27979;SDS011;15315;50.836;4.430;2024-01-10T07:05:49;16.35;;;6.25;;
27979;SDS011;15315;50.836;4.430;2024-01-10T07:15:49;15.43;;;6.55;;
27979;SDS011;15315;50.836;4.430;2024-01-10T07:25:52;14.55;;;6.25;;
27979;SDS011;15315;50.836;4.430;2024-01-10T07:35:53;18.23;;;6.57;;
27979;SDS011;15315;50.836;4.430;2024-01-10T07:45:55;15.73;;;7.03;;
27979;SDS011;15315;50.836;4.430;2024-01-10T07:55:55;16.80;;;6.72;;
27979;SDS011;15315;50.836;4.430;2024-01-10T08:05:56;17.27;;;7.15;;
27979;SDS011;15315;50.836;4.430;2024-01-10T08:15:57;16.40;;;6.60;;
27979;SDS011;15315;50.836;4.430;2024-01-10T08:25:57;19.75;;;7.25;;
27979;SDS011;15315;50.836;4.430;2024-01-10T08:35:57;22.27;;;7.18;;
27979;SDS011;15315;50.836;4.430;2024-01-10T08:45:58;17.08;;;6.82;;
27979;SDS011;15315;50.836;4.430;2024-01-10T08:55:59;19.95;;;6.80;;
27979;SDS011;15315;50.836;4.430;2024-01-10T09:05:59;17.23;;;6.35;;
27979;SDS011;15315;50.836;4.430;2024-01-10T09:16:00;27.35;;;7.88;;
27979;SDS011;15315;50.836;4.430;2024-01-10T09:26:00;23.60;;;7.22;;
27979;SDS011;15315;50.836;4.430;2024-01-10T09:36:00;24.20;;;7.63;;
27979;SDS011;15315;50.836;4.430;2024-01-10T09:46:01;16.85;;;7.70;;
27979;SDS011;15315;50.836;4.430;2024-01-10T09:56:03;18.27;;;7.03;;
27979;SDS011;15315;50.836;4.430;2024-01-10T10:06:04;17.48;;;7.50;;
27979;SDS011;15315;50.836;4.430;2024-01-10T10:16:06;16.75;;;7.75;;
27979;SDS011;15315;50.836;4.430;2024-01-10T10:26:11;16.85;;;7.40;;
27979;SDS011;15315;50.836;4.430;2024-01-10T10:46:21;22.45;;;8.40;;
27979;SDS011;15315;50.836;4.430;2024-01-10T10:56:29;18.83;;;7.30;;
27979;SDS011;15315;50.836;4.430;2024-01-10T11:06:34;19.05;;;8.02;;
27979;SDS011;15315;50.836;4.430;2024-01-10T11:27:07;21.38;;;8.40;;
27979;SDS011;15315;50.836;4.430;2024-01-10T11:37:11;21.95;;;8.73;;
27979;SDS011;15315;50.836;4.430;2024-01-10T11:47:12;18.20;;;7.80;;
27979;SDS011;15315;50.836;4.430;2024-01-10T11:57:18;21.65;;;9.30;;
27979;SDS011;15315;50.836;4.430;2024-01-10T12:07:21;21.00;;;9.23;;
27979;SDS011;15315;50.836;4.430;2024-01-10T12:17:26;19.45;;;8.55;;
27979;SDS011;15315;50.836;4.430;2024-01-10T12:27:28;22.85;;;8.48;;
27979;SDS011;15315;50.836;4.430;2024-01-10T12:37:28;20.42;;;9.23;;
27979;SDS011;15315;50.836;4.430;2024-01-10T12:47:30;22.57;;;8.53;;
27979;SDS011;15315;50.836;4.430;2024-01-10T12:57:30;24.73;;;9.30;;
27979;SDS011;15315;50.836;4.430;2024-01-10T13:07:31;20.73;;;9.43;;
27979;SDS011;15315;50.836;4.430;2024-01-10T13:17:34;25.50;;;9.93;;
27979;SDS011;15315;50.836;4.430;2024-01-10T13:27:34;28.30;;;9.45;;
27979;SDS011;15315;50.836;4.430;2024-01-10T13:37:35;26.35;;;9.48;;
27979;SDS011;15315;50.836;4.430;2024-01-10T13:47:36;22.55;;;9.20;;
27979;SDS011;15315;50.836;4.430;2024-01-10T13:57:38;24.98;;;9.65;;
27979;SDS011;15315;50.836;4.430;2024-01-10T14:07:38;20.35;;;9.35;;
27979;SDS011;15315;50.836;4.430;2024-01-10T14:17:40;29.77;;;10.30;;
27979;SDS011;15315;50.836;4.430;2024-01-10T14:27:40;24.10;;;9.55;;
27979;SDS011;15315;50.836;4.430;2024-01-10T14:37:41;24.63;;;9.77;;
27979;SDS011;15315;50.836;4.430;2024-01-10T14:47:43;25.38;;;9.25;;
27979;SDS011;15315;50.836;4.430;2024-01-10T14:57:43;25.45;;;9.98;;
27979;SDS011;15315;50.836;4.430;2024-01-10T15:07:43;24.08;;;10.75;;
27979;SDS011;15315;50.836;4.430;2024-01-10T15:17:44;24.55;;;11.20;;
27979;SDS011;15315;50.836;4.430;2024-01-10T15:27:45;22.83;;;10.40;;
27979;SDS011;15315;50.836;4.430;2024-01-10T15:37:45;32.80;;;12.55;;
27979;SDS011;15315;50.836;4.430;2024-01-10T15:47:46;25.17;;;10.90;;
27979;SDS011;15315;50.836;4.430;2024-01-10T15:57:46;26.40;;;10.85;;
27979;SDS011;15315;50.836;4.430;2024-01-10T16:07:47;24.38;;;10.40;;
27979;SDS011;15315;50.836;4.430;2024-01-10T16:17:47;25.85;;;10.30;;
27979;SDS011;15315;50.836;4.430;2024-01-10T16:27:48;27.05;;;11.02;;
27979;SDS011;15315;50.836;4.430;2024-01-10T16:37:48;28.08;;;11.65;;
27979;SDS011;15315;50.836;4.430;2024-01-10T16:47:49;39.90;;;13.00;;
27979;SDS011;15315;50.836;4.430;2024-01-10T16:57:50;29.05;;;11.55;;
27979;SDS011;15315;50.836;4.430;2024-01-10T17:07:51;30.30;;;11.77;;
27979;SDS011;15315;50.836;4.430;2024-01-10T17:17:52;27.70;;;12.40;;
27979;SDS011;15315;50.836;4.430;2024-01-10T17:27:53;40.60;;;14.13;;
27979;SDS011;15315;50.836;4.430;2024-01-10T17:37:53;34.63;;;13.82;;
27979;SDS011;15315;50.836;4.430;2024-01-10T17:47:54;47.28;;;18.30;;
27979;SDS011;15315;50.836;4.430;2024-01-10T17:57:54;39.92;;;15.60;;
27979;SDS011;15315;50.836;4.430;2024-01-10T18:07:54;41.15;;;16.65;;
27979;SDS011;15315;50.836;4.430;2024-01-10T18:17:55;37.95;;;14.48;;
27979;SDS011;15315;50.836;4.430;2024-01-10T18:27:55;53.97;;;20.17;;
27979;SDS011;15315;50.836;4.430;2024-01-10T18:37:56;33.30;;;13.93;;
27979;SDS011;15315;50.836;4.430;2024-01-10T18:47:56;38.97;;;15.15;;
27979;SDS011;15315;50.836;4.430;2024-01-10T18:57:57;39.85;;;15.98;;
27979;SDS011;15315;50.836;4.430;2024-01-10T19:07:57;45.28;;;17.70;;
27979;SDS011;15315;50.836;4.430;2024-01-10T19:17:58;49.10;;;18.83;;
27979;SDS011;15315;50.836;4.430;2024-01-10T19:27:59;42.85;;;17.40;;
27979;SDS011;15315;50.836;4.430;2024-01-10T19:38:00;32.83;;;15.80;;
27979;SDS011;15315;50.836;4.430;2024-01-10T19:48:00;39.58;;;17.23;;
27979;SDS011;15315;50.836;4.430;2024-01-10T19:58:01;42.35;;;17.20;;
27979;SDS011;15315;50.836;4.430;2024-01-10T20:08:02;51.10;;;18.52;;
27979;SDS011;15315;50.836;4.430;2024-01-10T20:18:03;45.28;;;18.60;;
27979;SDS011;15315;50.836;4.430;2024-01-10T20:28:03;46.70;;;18.92;;
27979;SDS011;15315;50.836;4.430;2024-01-10T20:38:05;44.88;;;17.92;;
27979;SDS011;15315;50.836;4.430;2024-01-10T20:48:05;40.28;;;16.52;;
27979;SDS011;15315;50.836;4.430;2024-01-10T20:58:08;44.93;;;16.20;;
27979;SDS011;15315;50.836;4.430;2024-01-10T21:08:09;46.30;;;17.65;;
27979;SDS011;15315;50.836;4.430;2024-01-10T21:18:09;45.90;;;17.48;;
27979;SDS011;15315;50.836;4.430;2024-01-10T21:28:11;43.17;;;16.70;;
27979;SDS011;15315;50.836;4.430;2024-01-10T21:38:12;42.03;;;17.20;;
27979;SDS011;15315;50.836;4.430;2024-01-10T21:48:13;39.08;;;16.27;;
27979;SDS011;15315;50.836;4.430;2024-01-10T21:58:14;45.47;;;18.10;;
27979;SDS011;15315;50.836;4.430;2024-01-10T22:08:15;40.97;;;17.80;;
27979;SDS011;15315;50.836;4.430;2024-01-10T22:18:16;43.30;;;18.35;;
27979;SDS011;15315;50.836;4.430;2024-01-10T22:28:17;48.85;;;19.20;;
27979;SDS011;15315;50.836;4.430;2024-01-10T22:38:17;42.42;;;18.25;;
27979;SDS011;15315;50.836;4.430;2024-01-10T22:48:18;39.53;;;17.13;;
27979;SDS011;15315;50.836;4.430;2024-01-10T22:58:18;40.78;;;17.85;;
27979;SDS011;15315;50.836;4.430;2024-01-10T23:08:19;44.55;;;17.98;;
27979;SDS011;15315;50.836;4.430;2024-01-10T23:18:19;49.85;;;20.20;;
27979;SDS011;15315;50.836;4.430;2024-01-10T23:28:20;43.13;;;18.30;;
27979;SDS011;15315;50.836;4.430;2024-01-10T23:38:20;42.42;;;17.77;;
27979;SDS011;15315;50.836;4.430;2024-01-10T23:48:21;45.47;;;18.08;;
27979;SDS011;15315;50.836;4.430;2024-01-10T23:58:22;55.03;;;17.35;;
